My webcam more information My webcam


Thunder radar more information blitzortung!


Rain radar more information rain snow radar


Visit our other weather sites:

Template documentation
and downloads

And another site


You find our weather info also at:

Weather Underground

AWEKAS

Citizen Weather Observer Program (CWOP)

HAMweather, WeatherForYou, PWS Weather


Nearby METAR Reports

   
KTAN - Taunton, Massachusetts, USA
Distance from station: W 5 mi
Updated: Aug 21 2018 9:52 pm
Mist, Clear  
Mist, Clear  
   Wind: Calm
Wind: Calm
Temperature: 62.6°F
Dew Point: 60.8°F
Humidity: 94%
Barometer: 30 inHg
Clouds: Clear
Visibility: 4 mi
Cloud details: Clear
KTAN 220152Z AUTO 00000KT 4SM BR CLR 17/16 A3000 RMK AO2 SLP160 T01670156
KPYM - Plymouth, Massachusetts, USA
Distance from station: ENE 10 mi
Updated: Aug 21 2018 9:52 pm
Overcast  
Overcast  
   Wind: Calm
Wind: Calm
Temperature: 66.2°F
Dew Point: 64.4°F
Humidity: 94%
Barometer: 30.01 inHg
Clouds: Overcast
Visibility: 10 mi
Cloud details: Overcast 1300 ft
KPYM 220152Z AUTO 00000KT 10SM OVC013 19/18 A3001 RMK AO2 SLP163 T01940178
KEWB - New Bedford, Massachusetts, USA
Distance from station: S 14 mi
Updated: Aug 21 2018 9:53 pm
Overcast  
Overcast  
   Wind: Calm
Wind: Calm
Temperature: 66.2°F
Dew Point: 64.4°F
Humidity: 94%
Barometer: 29.99 inHg
Clouds: Overcast
Visibility: 10 mi
Cloud details: Overcast 1400 ft
KEWB 220153Z 00000KT 10SM OVC014 19/18 A2999 RMK AO2 SLP156 LAST AUGMENTED OBS T01890183
KFMH - Falmouth/Otis Ab, Massachusetts, USA
Distance from station: SE 27 mi
Updated: Aug 21 2018 9:55 pm
Overcast  
Overcast  
   Wind: Calm
Wind: Calm
Temperature: 66.2°F
Dew Point: 64.4°F
Humidity: 94%
Barometer: 30.02 inHg
Clouds: Overcast
Visibility: 10 mi
Cloud details: Overcast 1000 ft
KFMH 220155Z AUTO 00000KT 10SM OVC010 19/18 A3002 RMK AO2
KBOS - Boston, Massachusetts, USA
Distance from station: N 33 mi
Updated: Aug 21 2018 9:54 pm
Mostly Cloudy  
Mostly Cloudy  
   Wind: SSE 6.9 mph
Wind: SSE 6.9 mph
Temperature: 68°F
Dew Point: 64.4°F
Humidity: 88%
Barometer: 30.01 inHg
Clouds: Mostly Cloudy
Visibility: 10 mi
Cloud details: Mostly Cloudy 1000 ft
KBOS 220154Z 15006KT 10SM BKN010 20/18 A3001 RMK AO2 SLP161 T02000178
KHYA - Hyannis, Massachusetts, USA
Distance from station: ESE 37 mi
Updated: Aug 21 2018 9:56 pm
Overcast  
Overcast  
   Wind: Calm
Wind: Calm
Temperature: 68°F
Dew Point: 64.4°F
Humidity: 88%
Barometer: 30 inHg
Clouds: Overcast
Visibility: 10 mi
Cloud details: Overcast 1200 ft
KHYA 220156Z 00000KT 10SM OVC012 20/18 A3000 RMK AO2 SLP158 T02000183
KMVY - Marthas Vineyard, Massachusetts, USA
Distance from station: SSE 37 mi
Updated: Aug 21 2018 9:53 pm
Overcast  
Overcast  
   Wind: Calm
Wind: Calm
Temperature: 68°F
Dew Point: 66.2°F
Humidity: 94%
Barometer: 30.01 inHg
Clouds: Overcast
Visibility: 10 mi
Cloud details: Overcast 1100 ft
KMVY 220153Z 00000KT 10SM OVC011 20/19 A3001 RMK AO2 SLP160 T02000189
KCQX - Chatham, Massachusetts, USA
Distance from station: ESE 49 mi
Updated: Aug 21 2018 9:52 pm
Overcast  
Overcast  
   Wind: East 5.8 mph
Wind: East 5.8 mph
Temperature: 68°F
Dew Point: 64.4°F
Humidity: 88%
Barometer: 30.01 inHg
Clouds: Overcast
Visibility: 10 mi
Cloud details: Overcast 700 ft
KCQX 220152Z AUTO 09005KT 10SM OVC007 20/18 A3001 RMK AO2 CIG 005V009 SLP163 T02000183
 

Script developed by  Saratoga-weather.org Adapted for the template by  Weerstation Leuven

Equipment we use:

Weather-station
Davis Vantage Vue

Weather-program
Meteobridge

Weather-server
TP-LINK TL-MR3020

Provider
Web Hosting By

Davis Vantage Vue

Meteobridge

TP-LINK TL-MR3020

Web Hosting By